sensor_id;sensor_type;location;lat;lon;timestamp;P1;durP1;ratioP1;P2;durP2;ratioP2
11671;SDS011;5892;43.412;24.612;2022-11-13T00:02:04;61.27;;;37.60;;
11671;SDS011;5892;43.412;24.612;2022-11-13T00:04:32;113.80;;;68.27;;
11671;SDS011;5892;43.412;24.612;2022-11-13T00:06:59;46.70;;;32.23;;
11671;SDS011;5892;43.412;24.612;2022-11-13T00:09:26;44.00;;;32.33;;
11671;SDS011;5892;43.412;24.612;2022-11-13T00:11:53;45.93;;;32.70;;
11671;SDS011;5892;43.412;24.612;2022-11-13T00:14:20;41.70;;;32.37;;
11671;SDS011;5892;43.412;24.612;2022-11-13T00:16:47;41.93;;;30.83;;
11671;SDS011;5892;43.412;24.612;2022-11-13T00:19:13;45.43;;;31.07;;
11671;SDS011;5892;43.412;24.612;2022-11-13T00:21:42;41.33;;;31.10;;
11671;SDS011;5892;43.412;24.612;2022-11-13T00:24:09;42.00;;;29.67;;
11671;SDS011;5892;43.412;24.612;2022-11-13T00:26:35;40.67;;;30.57;;
11671;SDS011;5892;43.412;24.612;2022-11-13T00:29:03;38.90;;;30.63;;
11671;SDS011;5892;43.412;24.612;2022-11-13T00:31:30;42.47;;;31.80;;
11671;SDS011;5892;43.412;24.612;2022-11-13T00:33:57;40.03;;;31.57;;
11671;SDS011;5892;43.412;24.612;2022-11-13T00:36:25;40.93;;;30.87;;
11671;SDS011;5892;43.412;24.612;2022-11-13T00:38:55;43.83;;;31.67;;
11671;SDS011;5892;43.412;24.612;2022-11-13T00:41:22;40.33;;;30.67;;
11671;SDS011;5892;43.412;24.612;2022-11-13T00:43:49;42.10;;;30.73;;
11671;SDS011;5892;43.412;24.612;2022-11-13T00:46:17;40.00;;;31.00;;
11671;SDS011;5892;43.412;24.612;2022-11-13T00:48:43;41.70;;;30.13;;
11671;SDS011;5892;43.412;24.612;2022-11-13T00:51:11;38.80;;;30.40;;
11671;SDS011;5892;43.412;24.612;2022-11-13T00:53:38;44.83;;;31.37;;
11671;SDS011;5892;43.412;24.612;2022-11-13T00:56:06;42.50;;;31.00;;
11671;SDS011;5892;43.412;24.612;2022-11-13T00:58:33;42.27;;;31.90;;
11671;SDS011;5892;43.412;24.612;2022-11-13T01:01:03;44.93;;;31.63;;
11671;SDS011;5892;43.412;24.612;2022-11-13T01:03:31;40.80;;;31.03;;
11671;SDS011;5892;43.412;24.612;2022-11-13T01:05:58;43.40;;;31.93;;
11671;SDS011;5892;43.412;24.612;2022-11-13T01:08:25;42.23;;;30.63;;
11671;SDS011;5892;43.412;24.612;2022-11-13T01:10:52;40.87;;;30.40;;
11671;SDS011;5892;43.412;24.612;2022-11-13T01:13:20;39.17;;;29.63;;
11671;SDS011;5892;43.412;24.612;2022-11-13T01:15:47;42.10;;;31.03;;
11671;SDS011;5892;43.412;24.612;2022-11-13T01:18:14;41.50;;;31.07;;
11671;SDS011;5892;43.412;24.612;2022-11-13T01:20:41;44.03;;;30.27;;
11671;SDS011;5892;43.412;24.612;2022-11-13T01:23:08;39.77;;;29.77;;
11671;SDS011;5892;43.412;24.612;2022-11-13T01:25:35;38.03;;;29.87;;
11671;SDS011;5892;43.412;24.612;2022-11-13T01:28:02;41.93;;;30.13;;
11671;SDS011;5892;43.412;24.612;2022-11-13T01:30:30;40.27;;;29.83;;
11671;SDS011;5892;43.412;24.612;2022-11-13T01:32:57;40.00;;;29.87;;
11671;SDS011;5892;43.412;24.612;2022-11-13T01:35:24;42.70;;;29.80;;
11671;SDS011;5892;43.412;24.612;2022-11-13T01:37:51;39.97;;;28.97;;
11671;SDS011;5892;43.412;24.612;2022-11-13T01:40:17;42.27;;;29.47;;
11671;SDS011;5892;43.412;24.612;2022-11-13T01:42:45;43.90;;;30.37;;
11671;SDS011;5892;43.412;24.612;2022-11-13T01:48:31;41.50;;;30.20;;
11671;SDS011;5892;43.412;24.612;2022-11-13T01:51:02;41.40;;;28.83;;
11671;SDS011;5892;43.412;24.612;2022-11-13T01:53:35;43.63;;;30.83;;
11671;SDS011;5892;43.412;24.612;2022-11-13T01:56:02;41.67;;;29.67;;
11671;SDS011;5892;43.412;24.612;2022-11-13T01:58:29;41.03;;;29.77;;
11671;SDS011;5892;43.412;24.612;2022-11-13T02:00:58;41.17;;;29.57;;
11671;SDS011;5892;43.412;24.612;2022-11-13T02:03:25;40.77;;;29.83;;
11671;SDS011;5892;43.412;24.612;2022-11-13T02:05:52;38.93;;;29.73;;
11671;SDS011;5892;43.412;24.612;2022-11-13T02:08:19;39.30;;;29.93;;
11671;SDS011;5892;43.412;24.612;2022-11-13T02:10:47;40.53;;;29.53;;
11671;SDS011;5892;43.412;24.612;2022-11-13T02:13:14;41.77;;;29.27;;
11671;SDS011;5892;43.412;24.612;2022-11-13T02:15:41;40.63;;;30.10;;
11671;SDS011;5892;43.412;24.612;2022-11-13T02:18:11;44.57;;;29.40;;
11671;SDS011;5892;43.412;24.612;2022-11-13T02:20:42;39.70;;;28.83;;
11671;SDS011;5892;43.412;24.612;2022-11-13T02:23:16;39.03;;;28.50;;
11671;SDS011;5892;43.412;24.612;2022-11-13T02:25:51;42.97;;;29.67;;
11671;SDS011;5892;43.412;24.612;2022-11-13T02:28:19;38.80;;;28.17;;
11671;SDS011;5892;43.412;24.612;2022-11-13T02:30:46;44.17;;;30.07;;
11671;SDS011;5892;43.412;24.612;2022-11-13T02:33:21;38.03;;;28.97;;
11671;SDS011;5892;43.412;24.612;2022-11-13T02:35:49;39.57;;;27.53;;
11671;SDS011;5892;43.412;24.612;2022-11-13T02:38:17;38.80;;;27.67;;
11671;SDS011;5892;43.412;24.612;2022-11-13T02:40:44;36.23;;;26.93;;
11671;SDS011;5892;43.412;24.612;2022-11-13T02:43:12;42.63;;;28.63;;
11671;SDS011;5892;43.412;24.612;2022-11-13T02:45:39;39.03;;;29.20;;
11671;SDS011;5892;43.412;24.612;2022-11-13T02:48:06;40.93;;;29.37;;
11671;SDS011;5892;43.412;24.612;2022-11-13T02:50:34;37.57;;;28.67;;
11671;SDS011;5892;43.412;24.612;2022-11-13T02:53:02;38.83;;;28.60;;
11671;SDS011;5892;43.412;24.612;2022-11-13T02:55:29;38.50;;;28.03;;
11671;SDS011;5892;43.412;24.612;2022-11-13T02:57:56;39.43;;;27.70;;
11671;SDS011;5892;43.412;24.612;2022-11-13T03:00:25;36.40;;;28.23;;
11671;SDS011;5892;43.412;24.612;2022-11-13T03:02:52;40.03;;;27.43;;
11671;SDS011;5892;43.412;24.612;2022-11-13T03:05:20;35.23;;;28.00;;
11671;SDS011;5892;43.412;24.612;2022-11-13T03:07:47;41.97;;;27.97;;
11671;SDS011;5892;43.412;24.612;2022-11-13T03:10:13;44.87;;;29.90;;
11671;SDS011;5892;43.412;24.612;2022-11-13T03:12:40;39.03;;;28.47;;
11671;SDS011;5892;43.412;24.612;2022-11-13T03:15:08;38.90;;;28.17;;
11671;SDS011;5892;43.412;24.612;2022-11-13T03:17:37;38.97;;;30.90;;
11671;SDS011;5892;43.412;24.612;2022-11-13T03:20:04;38.33;;;27.87;;
11671;SDS011;5892;43.412;24.612;2022-11-13T03:22:32;42.80;;;31.50;;
11671;SDS011;5892;43.412;24.612;2022-11-13T03:24:58;38.20;;;27.30;;
11671;SDS011;5892;43.412;24.612;2022-11-13T03:27:25;40.40;;;28.30;;
11671;SDS011;5892;43.412;24.612;2022-11-13T03:29:52;45.33;;;31.03;;
11671;SDS011;5892;43.412;24.612;2022-11-13T03:32:19;41.23;;;28.97;;
11671;SDS011;5892;43.412;24.612;2022-11-13T03:34:47;43.07;;;29.43;;
11671;SDS011;5892;43.412;24.612;2022-11-13T03:37:14;43.63;;;28.83;;
11671;SDS011;5892;43.412;24.612;2022-11-13T03:39:41;40.47;;;28.03;;
11671;SDS011;5892;43.412;24.612;2022-11-13T03:42:08;38.47;;;27.73;;
11671;SDS011;5892;43.412;24.612;2022-11-13T03:44:35;40.10;;;27.80;;
11671;SDS011;5892;43.412;24.612;2022-11-13T03:47:02;51.70;;;35.03;;
11671;SDS011;5892;43.412;24.612;2022-11-13T03:49:29;53.40;;;36.50;;
11671;SDS011;5892;43.412;24.612;2022-11-13T03:51:57;61.13;;;39.60;;
11671;SDS011;5892;43.412;24.612;2022-11-13T03:54:24;45.67;;;31.80;;
11671;SDS011;5892;43.412;24.612;2022-11-13T03:56:51;37.37;;;28.17;;
11671;SDS011;5892;43.412;24.612;2022-11-13T03:59:18;37.63;;;27.70;;
11671;SDS011;5892;43.412;24.612;2022-11-13T04:01:44;35.33;;;27.80;;
11671;SDS011;5892;43.412;24.612;2022-11-13T04:04:11;33.57;;;25.37;;
11671;SDS011;5892;43.412;24.612;2022-11-13T04:06:38;34.17;;;26.80;;
11671;SDS011;5892;43.412;24.612;2022-11-13T04:09:06;34.73;;;26.10;;
11671;SDS011;5892;43.412;24.612;2022-11-13T04:11:33;35.00;;;26.17;;
11671;SDS011;5892;43.412;24.612;2022-11-13T04:14:00;35.37;;;26.07;;
11671;SDS011;5892;43.412;24.612;2022-11-13T04:16:27;33.97;;;25.43;;
11671;SDS011;5892;43.412;24.612;2022-11-13T04:18:54;32.67;;;24.93;;
11671;SDS011;5892;43.412;24.612;2022-11-13T04:21:21;34.07;;;25.20;;
11671;SDS011;5892;43.412;24.612;2022-11-13T04:23:48;31.60;;;24.57;;
11671;SDS011;5892;43.412;24.612;2022-11-13T04:26:16;33.37;;;25.23;;
11671;SDS011;5892;43.412;24.612;2022-11-13T04:28:43;45.97;;;31.97;;
11671;SDS011;5892;43.412;24.612;2022-11-13T04:31:09;35.37;;;26.30;;
11671;SDS011;5892;43.412;24.612;2022-11-13T04:33:36;32.50;;;24.40;;
11671;SDS011;5892;43.412;24.612;2022-11-13T04:36:03;30.90;;;25.10;;
11671;SDS011;5892;43.412;24.612;2022-11-13T04:38:31;32.77;;;24.57;;
11671;SDS011;5892;43.412;24.612;2022-11-13T04:40:57;31.07;;;24.77;;
11671;SDS011;5892;43.412;24.612;2022-11-13T04:43:43;31.07;;;25.43;;
11671;SDS011;5892;43.412;24.612;2022-11-13T04:46:10;31.50;;;24.20;;
11671;SDS011;5892;43.412;24.612;2022-11-13T04:48:37;33.40;;;26.73;;
11671;SDS011;5892;43.412;24.612;2022-11-13T04:51:04;32.33;;;24.27;;
11671;SDS011;5892;43.412;24.612;2022-11-13T04:53:31;33.50;;;25.83;;
11671;SDS011;5892;43.412;24.612;2022-11-13T04:55:58;34.43;;;25.63;;
11671;SDS011;5892;43.412;24.612;2022-11-13T04:58:25;34.47;;;26.13;;
11671;SDS011;5892;43.412;24.612;2022-11-13T05:00:53;32.73;;;26.00;;
11671;SDS011;5892;43.412;24.612;2022-11-13T05:03:20;32.67;;;24.93;;
11671;SDS011;5892;43.412;24.612;2022-11-13T05:05:47;36.27;;;27.10;;
11671;SDS011;5892;43.412;24.612;2022-11-13T05:08:14;37.30;;;26.60;;
11671;SDS011;5892;43.412;24.612;2022-11-13T05:10:41;37.73;;;27.80;;
11671;SDS011;5892;43.412;24.612;2022-11-13T05:13:09;37.47;;;28.33;;
11671;SDS011;5892;43.412;24.612;2022-11-13T05:15:36;41.17;;;28.73;;
11671;SDS011;5892;43.412;24.612;2022-11-13T05:18:04;35.50;;;27.87;;
11671;SDS011;5892;43.412;24.612;2022-11-13T05:20:31;38.73;;;28.10;;
11671;SDS011;5892;43.412;24.612;2022-11-13T05:22:58;35.83;;;26.33;;
11671;SDS011;5892;43.412;24.612;2022-11-13T05:25:25;37.33;;;28.20;;
11671;SDS011;5892;43.412;24.612;2022-11-13T05:27:51;37.37;;;28.00;;
11671;SDS011;5892;43.412;24.612;2022-11-13T05:30:18;36.33;;;27.07;;
11671;SDS011;5892;43.412;24.612;2022-11-13T05:32:45;34.13;;;27.00;;
11671;SDS011;5892;43.412;24.612;2022-11-13T05:35:13;35.87;;;27.73;;
11671;SDS011;5892;43.412;24.612;2022-11-13T05:37:41;41.07;;;29.33;;
11671;SDS011;5892;43.412;24.612;2022-11-13T05:40:08;38.30;;;29.23;;
11671;SDS011;5892;43.412;24.612;2022-11-13T05:42:36;37.37;;;27.87;;
11671;SDS011;5892;43.412;24.612;2022-11-13T05:45:03;37.40;;;27.73;;
11671;SDS011;5892;43.412;24.612;2022-11-13T05:47:31;42.93;;;33.00;;
11671;SDS011;5892;43.412;24.612;2022-11-13T05:49:58;43.93;;;31.43;;
11671;SDS011;5892;43.412;24.612;2022-11-13T05:52:26;47.40;;;34.80;;
11671;SDS011;5892;43.412;24.612;2022-11-13T05:54:53;46.90;;;35.83;;
11671;SDS011;5892;43.412;24.612;2022-11-13T05:57:20;44.67;;;34.13;;
11671;SDS011;5892;43.412;24.612;2022-11-13T05:59:47;42.80;;;29.90;;
11671;SDS011;5892;43.412;24.612;2022-11-13T06:02:14;42.93;;;30.40;;
11671;SDS011;5892;43.412;24.612;2022-11-13T06:04:40;44.60;;;30.70;;
11671;SDS011;5892;43.412;24.612;2022-11-13T06:07:07;40.67;;;30.70;;
11671;SDS011;5892;43.412;24.612;2022-11-13T06:09:36;43.33;;;30.63;;
11671;SDS011;5892;43.412;24.612;2022-11-13T06:12:03;42.67;;;30.07;;
11671;SDS011;5892;43.412;24.612;2022-11-13T06:14:30;42.17;;;30.63;;
11671;SDS011;5892;43.412;24.612;2022-11-13T06:16:57;38.77;;;30.13;;
11671;SDS011;5892;43.412;24.612;2022-11-13T06:19:24;40.20;;;30.83;;
11671;SDS011;5892;43.412;24.612;2022-11-13T06:21:50;40.03;;;30.90;;
11671;SDS011;5892;43.412;24.612;2022-11-13T06:24:17;39.80;;;30.43;;
11671;SDS011;5892;43.412;24.612;2022-11-13T06:26:46;41.00;;;30.83;;
11671;SDS011;5892;43.412;24.612;2022-11-13T06:29:13;44.30;;;34.37;;
11671;SDS011;5892;43.412;24.612;2022-11-13T06:31:39;41.67;;;31.07;;
11671;SDS011;5892;43.412;24.612;2022-11-13T06:34:06;41.93;;;31.83;;
11671;SDS011;5892;43.412;24.612;2022-11-13T06:36:34;40.43;;;31.00;;
11671;SDS011;5892;43.412;24.612;2022-11-13T06:39:04;45.63;;;31.90;;
11671;SDS011;5892;43.412;24.612;2022-11-13T06:41:32;39.97;;;31.50;;
11671;SDS011;5892;43.412;24.612;2022-11-13T06:44:00;46.47;;;32.33;;
11671;SDS011;5892;43.412;24.612;2022-11-13T06:46:27;40.87;;;32.73;;
11671;SDS011;5892;43.412;24.612;2022-11-13T06:48:54;41.47;;;32.23;;
11671;SDS011;5892;43.412;24.612;2022-11-13T06:51:23;41.83;;;33.37;;
11671;SDS011;5892;43.412;24.612;2022-11-13T06:53:52;47.13;;;34.10;;
11671;SDS011;5892;43.412;24.612;2022-11-13T06:56:19;39.27;;;32.40;;
11671;SDS011;5892;43.412;24.612;2022-11-13T06:58:46;45.03;;;34.00;;
11671;SDS011;5892;43.412;24.612;2022-11-13T07:01:15;44.43;;;35.53;;
11671;SDS011;5892;43.412;24.612;2022-11-13T07:03:43;43.57;;;34.87;;
11671;SDS011;5892;43.412;24.612;2022-11-13T07:06:11;45.90;;;34.40;;
11671;SDS011;5892;43.412;24.612;2022-11-13T07:08:39;38.70;;;30.47;;
11671;SDS011;5892;43.412;24.612;2022-11-13T07:11:07;39.63;;;32.00;;
11671;SDS011;5892;43.412;24.612;2022-11-13T07:13:35;39.10;;;30.83;;
11671;SDS011;5892;43.412;24.612;2022-11-13T07:16:03;39.07;;;31.27;;
11671;SDS011;5892;43.412;24.612;2022-11-13T07:18:33;37.33;;;31.20;;
11671;SDS011;5892;43.412;24.612;2022-11-13T07:21:02;39.53;;;31.87;;
11671;SDS011;5892;43.412;24.612;2022-11-13T07:23:31;39.93;;;32.40;;
11671;SDS011;5892;43.412;24.612;2022-11-13T07:25:58;40.37;;;31.87;;
11671;SDS011;5892;43.412;24.612;2022-11-13T07:28:25;38.40;;;30.13;;
11671;SDS011;5892;43.412;24.612;2022-11-13T07:30:55;38.73;;;29.30;;
11671;SDS011;5892;43.412;24.612;2022-11-13T07:33:25;42.23;;;34.70;;
11671;SDS011;5892;43.412;24.612;2022-11-13T07:35:54;43.47;;;33.87;;
11671;SDS011;5892;43.412;24.612;2022-11-13T07:38:21;41.93;;;28.60;;
11671;SDS011;5892;43.412;24.612;2022-11-13T07:40:48;40.40;;;31.87;;
11671;SDS011;5892;43.412;24.612;2022-11-13T07:43:16;31.77;;;25.47;;
11671;SDS011;5892;43.412;24.612;2022-11-13T07:45:43;26.37;;;21.57;;
11671;SDS011;5892;43.412;24.612;2022-11-13T07:48:10;24.87;;;19.87;;
11671;SDS011;5892;43.412;24.612;2022-11-13T07:50:39;24.17;;;19.63;;
11671;SDS011;5892;43.412;24.612;2022-11-13T07:53:08;22.90;;;19.10;;
11671;SDS011;5892;43.412;24.612;2022-11-13T07:55:35;23.90;;;18.90;;
11671;SDS011;5892;43.412;24.612;2022-11-13T07:58:03;23.07;;;18.43;;
11671;SDS011;5892;43.412;24.612;2022-11-13T08:00:31;20.07;;;17.10;;
11671;SDS011;5892;43.412;24.612;2022-11-13T08:03:03;20.80;;;17.60;;
11671;SDS011;5892;43.412;24.612;2022-11-13T08:05:31;22.43;;;18.27;;
11671;SDS011;5892;43.412;24.612;2022-11-13T08:07:58;20.27;;;17.40;;
11671;SDS011;5892;43.412;24.612;2022-11-13T08:10:26;21.57;;;17.20;;
11671;SDS011;5892;43.412;24.612;2022-11-13T08:12:57;23.13;;;18.33;;
11671;SDS011;5892;43.412;24.612;2022-11-13T08:15:26;21.97;;;17.57;;
11671;SDS011;5892;43.412;24.612;2022-11-13T08:17:54;23.50;;;18.03;;
11671;SDS011;5892;43.412;24.612;2022-11-13T08:20:21;20.63;;;17.23;;
11671;SDS011;5892;43.412;24.612;2022-11-13T08:22:48;28.77;;;18.87;;
11671;SDS011;5892;43.412;24.612;2022-11-13T08:25:16;36.33;;;25.97;;
11671;SDS011;5892;43.412;24.612;2022-11-13T08:27:45;24.43;;;18.07;;
11671;SDS011;5892;43.412;24.612;2022-11-13T08:30:12;23.30;;;17.47;;
11671;SDS011;5892;43.412;24.612;2022-11-13T08:32:40;22.73;;;17.87;;
11671;SDS011;5892;43.412;24.612;2022-11-13T08:35:07;25.47;;;20.33;;
11671;SDS011;5892;43.412;24.612;2022-11-13T08:37:34;21.60;;;17.63;;
11671;SDS011;5892;43.412;24.612;2022-11-13T08:40:01;21.33;;;18.10;;
11671;SDS011;5892;43.412;24.612;2022-11-13T08:42:28;22.10;;;18.50;;
11671;SDS011;5892;43.412;24.612;2022-11-13T08:44:56;19.17;;;16.47;;
11671;SDS011;5892;43.412;24.612;2022-11-13T08:47:23;19.83;;;17.33;;
11671;SDS011;5892;43.412;24.612;2022-11-13T08:49:52;23.07;;;18.87;;
11671;SDS011;5892;43.412;24.612;2022-11-13T08:52:20;21.63;;;17.60;;
11671;SDS011;5892;43.412;24.612;2022-11-13T08:54:47;19.80;;;17.47;;
11671;SDS011;5892;43.412;24.612;2022-11-13T08:57:13;20.13;;;16.30;;
11671;SDS011;5892;43.412;24.612;2022-11-13T08:59:40;21.37;;;15.77;;
11671;SDS011;5892;43.412;24.612;2022-11-13T09:02:09;18.87;;;15.43;;
11671;SDS011;5892;43.412;24.612;2022-11-13T09:04:39;23.67;;;18.20;;
11671;SDS011;5892;43.412;24.612;2022-11-13T09:07:07;23.10;;;17.93;;
11671;SDS011;5892;43.412;24.612;2022-11-13T09:09:34;19.73;;;16.83;;
11671;SDS011;5892;43.412;24.612;2022-11-13T09:12:01;22.77;;;16.43;;
11671;SDS011;5892;43.412;24.612;2022-11-13T09:14:28;21.60;;;16.40;;
11671;SDS011;5892;43.412;24.612;2022-11-13T09:16:55;22.20;;;16.47;;
11671;SDS011;5892;43.412;24.612;2022-11-13T09:19:23;19.50;;;15.57;;
11671;SDS011;5892;43.412;24.612;2022-11-13T09:21:51;22.63;;;18.17;;
11671;SDS011;5892;43.412;24.612;2022-11-13T09:24:18;21.00;;;16.90;;
11671;SDS011;5892;43.412;24.612;2022-11-13T09:26:45;19.13;;;15.77;;
11671;SDS011;5892;43.412;24.612;2022-11-13T09:29:12;23.97;;;17.03;;
11671;SDS011;5892;43.412;24.612;2022-11-13T09:31:38;19.83;;;16.17;;
11671;SDS011;5892;43.412;24.612;2022-11-13T09:34:05;19.67;;;16.00;;
11671;SDS011;5892;43.412;24.612;2022-11-13T09:36:34;19.40;;;16.17;;
11671;SDS011;5892;43.412;24.612;2022-11-13T09:39:01;23.00;;;19.13;;
11671;SDS011;5892;43.412;24.612;2022-11-13T09:41:28;22.17;;;16.67;;
11671;SDS011;5892;43.412;24.612;2022-11-13T09:44:00;22.23;;;16.63;;
11671;SDS011;5892;43.412;24.612;2022-11-13T09:46:34;20.17;;;16.50;;
11671;SDS011;5892;43.412;24.612;2022-11-13T09:49:06;19.17;;;15.33;;
11671;SDS011;5892;43.412;24.612;2022-11-13T09:51:42;18.70;;;15.30;;
11671;SDS011;5892;43.412;24.612;2022-11-13T09:54:15;21.57;;;16.93;;
11671;SDS011;5892;43.412;24.612;2022-11-13T09:56:43;23.70;;;16.90;;
11671;SDS011;5892;43.412;24.612;2022-11-13T09:59:18;23.33;;;17.20;;
11671;SDS011;5892;43.412;24.612;2022-11-13T10:01:53;18.87;;;16.80;;
11671;SDS011;5892;43.412;24.612;2022-11-13T10:04:30;28.17;;;18.00;;
11671;SDS011;5892;43.412;24.612;2022-11-13T10:07:15;21.00;;;16.43;;
11671;SDS011;5892;43.412;24.612;2022-11-13T10:09:56;21.57;;;15.90;;
11671;SDS011;5892;43.412;24.612;2022-11-13T10:12:27;22.10;;;16.00;;
11671;SDS011;5892;43.412;24.612;2022-11-13T10:14:59;19.20;;;15.43;;
11671;SDS011;5892;43.412;24.612;2022-11-13T10:17:30;19.23;;;15.93;;
11671;SDS011;5892;43.412;24.612;2022-11-13T10:20:02;19.53;;;15.57;;
11671;SDS011;5892;43.412;24.612;2022-11-13T10:22:36;20.13;;;15.07;;
11671;SDS011;5892;43.412;24.612;2022-11-13T10:25:10;20.30;;;15.83;;
11671;SDS011;5892;43.412;24.612;2022-11-13T10:27:44;18.97;;;15.63;;
11671;SDS011;5892;43.412;24.612;2022-11-13T10:30:16;18.13;;;15.47;;
11671;SDS011;5892;43.412;24.612;2022-11-13T10:32:44;21.10;;;16.23;;
11671;SDS011;5892;43.412;24.612;2022-11-13T10:35:18;21.03;;;15.93;;
11671;SDS011;5892;43.412;24.612;2022-11-13T10:38:04;18.43;;;15.37;;
11671;SDS011;5892;43.412;24.612;2022-11-13T10:40:32;19.73;;;16.80;;
11671;SDS011;5892;43.412;24.612;2022-11-13T10:43:05;23.00;;;17.47;;
11671;SDS011;5892;43.412;24.612;2022-11-13T10:45:38;21.97;;;16.67;;
11671;SDS011;5892;43.412;24.612;2022-11-13T10:48:17;21.23;;;17.00;;
11671;SDS011;5892;43.412;24.612;2022-11-13T10:50:51;22.07;;;17.33;;
11671;SDS011;5892;43.412;24.612;2022-11-13T10:53:21;19.83;;;16.43;;
11671;SDS011;5892;43.412;24.612;2022-11-13T10:55:49;19.37;;;16.63;;
11671;SDS011;5892;43.412;24.612;2022-11-13T10:58:21;19.87;;;16.87;;
11671;SDS011;5892;43.412;24.612;2022-11-13T11:00:48;20.90;;;17.17;;
11671;SDS011;5892;43.412;24.612;2022-11-13T11:03:17;19.37;;;16.73;;
11671;SDS011;5892;43.412;24.612;2022-11-13T11:05:52;20.67;;;16.93;;
11671;SDS011;5892;43.412;24.612;2022-11-13T11:08:23;22.70;;;16.70;;
11671;SDS011;5892;43.412;24.612;2022-11-13T11:10:56;20.83;;;16.47;;
11671;SDS011;5892;43.412;24.612;2022-11-13T11:13:42;19.77;;;16.10;;
11671;SDS011;5892;43.412;24.612;2022-11-13T11:16:10;21.17;;;16.13;;
11671;SDS011;5892;43.412;24.612;2022-11-13T11:18:44;19.07;;;16.13;;
11671;SDS011;5892;43.412;24.612;2022-11-13T11:21:15;17.60;;;14.83;;
11671;SDS011;5892;43.412;24.612;2022-11-13T11:23:48;19.10;;;15.80;;
11671;SDS011;5892;43.412;24.612;2022-11-13T11:26:24;18.50;;;15.47;;
11671;SDS011;5892;43.412;24.612;2022-11-13T11:28:59;18.10;;;15.37;;
11671;SDS011;5892;43.412;24.612;2022-11-13T11:31:44;18.50;;;15.57;;
11671;SDS011;5892;43.412;24.612;2022-11-13T11:34:17;20.90;;;15.47;;
11671;SDS011;5892;43.412;24.612;2022-11-13T11:36:51;20.97;;;16.77;;
11671;SDS011;5892;43.412;24.612;2022-11-13T11:39:28;20.00;;;15.87;;
11671;SDS011;5892;43.412;24.612;2022-11-13T11:42:04;22.90;;;17.27;;
11671;SDS011;5892;43.412;24.612;2022-11-13T11:44:41;17.37;;;14.67;;
11671;SDS011;5892;43.412;24.612;2022-11-13T11:47:19;18.23;;;15.37;;
11671;SDS011;5892;43.412;24.612;2022-11-13T11:49:46;17.07;;;15.27;;
11671;SDS011;5892;43.412;24.612;2022-11-13T11:52:18;18.30;;;15.30;;
11671;SDS011;5892;43.412;24.612;2022-11-13T11:54:58;18.77;;;15.60;;
11671;SDS011;5892;43.412;24.612;2022-11-13T11:57:43;25.97;;;20.57;;
11671;SDS011;5892;43.412;24.612;2022-11-13T12:00:16;21.07;;;16.50;;
11671;SDS011;5892;43.412;24.612;2022-11-13T12:05:51;62.17;;;45.90;;
11671;SDS011;5892;43.412;24.612;2022-11-13T12:08:31;38.73;;;30.73;;
11671;SDS011;5892;43.412;24.612;2022-11-13T12:11:06;17.97;;;15.53;;
11671;SDS011;5892;43.412;24.612;2022-11-13T12:13:41;19.80;;;16.63;;
11671;SDS011;5892;43.412;24.612;2022-11-13T12:16:19;35.43;;;28.00;;
11671;SDS011;5892;43.412;24.612;2022-11-13T12:18:54;26.23;;;22.70;;
11671;SDS011;5892;43.412;24.612;2022-11-13T12:21:30;24.83;;;21.93;;
11671;SDS011;5892;43.412;24.612;2022-11-13T12:24:10;22.27;;;19.87;;
11671;SDS011;5892;43.412;24.612;2022-11-13T12:26:51;28.10;;;23.17;;
11671;SDS011;5892;43.412;24.612;2022-11-13T12:29:38;25.83;;;21.93;;
11671;SDS011;5892;43.412;24.612;2022-11-13T12:32:18;20.13;;;18.03;;
11671;SDS011;5892;43.412;24.612;2022-11-13T12:34:56;18.90;;;16.70;;
11671;SDS011;5892;43.412;24.612;2022-11-13T12:37:37;19.83;;;17.00;;
11671;SDS011;5892;43.412;24.612;2022-11-13T12:40:12;19.43;;;16.97;;
11671;SDS011;5892;43.412;24.612;2022-11-13T12:42:52;23.03;;;18.43;;
11671;SDS011;5892;43.412;24.612;2022-11-13T12:45:29;22.47;;;17.80;;
11671;SDS011;5892;43.412;24.612;2022-11-13T12:48:18;20.00;;;16.70;;
11671;SDS011;5892;43.412;24.612;2022-11-13T12:50:55;19.20;;;15.40;;
11671;SDS011;5892;43.412;24.612;2022-11-13T12:53:24;18.17;;;15.53;;
11671;SDS011;5892;43.412;24.612;2022-11-13T12:55:56;23.00;;;17.33;;
11671;SDS011;5892;43.412;24.612;2022-11-13T12:58:26;17.53;;;15.60;;
11671;SDS011;5892;43.412;24.612;2022-11-13T13:00:56;22.60;;;15.67;;
11671;SDS011;5892;43.412;24.612;2022-11-13T13:03:37;17.23;;;15.43;;
11671;SDS011;5892;43.412;24.612;2022-11-13T13:06:20;17.20;;;15.40;;
11671;SDS011;5892;43.412;24.612;2022-11-13T13:09:02;17.00;;;14.37;;
11671;SDS011;5892;43.412;24.612;2022-11-13T13:11:42;16.40;;;14.47;;
11671;SDS011;5892;43.412;24.612;2022-11-13T13:14:19;16.37;;;14.30;;
11671;SDS011;5892;43.412;24.612;2022-11-13T13:17:04;15.97;;;14.07;;
11671;SDS011;5892;43.412;24.612;2022-11-13T13:19:32;14.53;;;13.03;;
11671;SDS011;5892;43.412;24.612;2022-11-13T13:21:59;15.50;;;13.33;;
11671;SDS011;5892;43.412;24.612;2022-11-13T13:24:27;15.03;;;13.17;;
11671;SDS011;5892;43.412;24.612;2022-11-13T13:26:56;14.13;;;12.73;;
11671;SDS011;5892;43.412;24.612;2022-11-13T13:29:26;15.10;;;13.13;;
11671;SDS011;5892;43.412;24.612;2022-11-13T13:31:57;18.70;;;14.80;;
11671;SDS011;5892;43.412;24.612;2022-11-13T13:34:34;16.03;;;14.23;;
11671;SDS011;5892;43.412;24.612;2022-11-13T13:37:15;35.73;;;22.03;;
11671;SDS011;5892;43.412;24.612;2022-11-13T13:39:51;26.60;;;15.87;;
11671;SDS011;5892;43.412;24.612;2022-11-13T13:42:30;23.13;;;14.50;;
11671;SDS011;5892;43.412;24.612;2022-11-13T13:45:13;17.37;;;13.90;;
11671;SDS011;5892;43.412;24.612;2022-11-13T13:47:48;15.43;;;13.37;;
11671;SDS011;5892;43.412;24.612;2022-11-13T13:50:18;15.30;;;12.27;;
11671;SDS011;5892;43.412;24.612;2022-11-13T13:52:47;13.10;;;11.40;;
11671;SDS011;5892;43.412;24.612;2022-11-13T13:55:15;15.63;;;11.20;;
11671;SDS011;5892;43.412;24.612;2022-11-13T13:57:44;10.83;;;9.70;;
11671;SDS011;5892;43.412;24.612;2022-11-13T14:00:14;11.53;;;10.33;;
11671;SDS011;5892;43.412;24.612;2022-11-13T14:02:44;11.50;;;10.23;;
11671;SDS011;5892;43.412;24.612;2022-11-13T14:05:16;11.30;;;10.00;;
11671;SDS011;5892;43.412;24.612;2022-11-13T14:07:50;12.93;;;10.03;;
11671;SDS011;5892;43.412;24.612;2022-11-13T14:10:18;11.60;;;10.40;;
11671;SDS011;5892;43.412;24.612;2022-11-13T14:12:46;11.83;;;10.60;;
11671;SDS011;5892;43.412;24.612;2022-11-13T14:15:25;13.87;;;10.80;;
11671;SDS011;5892;43.412;24.612;2022-11-13T14:18:03;18.60;;;14.03;;
11671;SDS011;5892;43.412;24.612;2022-11-13T14:20:34;11.97;;;10.67;;
11671;SDS011;5892;43.412;24.612;2022-11-13T14:23:07;15.70;;;12.67;;
11671;SDS011;5892;43.412;24.612;2022-11-13T14:25:36;15.67;;;13.30;;
11671;SDS011;5892;43.412;24.612;2022-11-13T14:28:03;35.30;;;20.57;;
11671;SDS011;5892;43.412;24.612;2022-11-13T14:30:32;13.57;;;12.17;;
11671;SDS011;5892;43.412;24.612;2022-11-13T14:32:59;15.43;;;12.97;;
11671;SDS011;5892;43.412;24.612;2022-11-13T14:35:27;12.53;;;11.17;;
11671;SDS011;5892;43.412;24.612;2022-11-13T14:37:54;15.87;;;11.97;;
11671;SDS011;5892;43.412;24.612;2022-11-13T14:40:22;14.03;;;12.17;;
11671;SDS011;5892;43.412;24.612;2022-11-13T14:42:52;14.47;;;12.00;;